Latest Coastal Weather Observations for Red Rocks Point

IDW60701

Issued at 2:42 pm WST Tuesday 28 April 2015 (issued every 10 minutes, with the page automatically refreshed every 10 minutes)

About coastal observations | Map of coastal stations | Coastal observations for WA | Marine services | Other Formats
Station Details ID: 011053 Name: RED ROCKS POINT Lat: -32.20 Lon: 127.53 Height: 3.1 m
Data from the previous 72 hours. | See also: Recent months for locations in Western Australia
Date/Time
WST
Temp

°C
Wind Pressure Rain
since 9am
mm
Weather Cloud Vis
km
Sea
Height
m
Swell
Dir
 
Speed
knots
Gust
knots
hPa Trend Height
m
Period
s
Dir
28/02:30pm 18.2 SE 13 15 1027.9 - 0.0 - - - - - - -
28/02:00pm 18.4 ESE 15 17 1027.9 - 0.0 - - - - - - -
28/01:30pm 18.7 SE 14 18 1028.0 - 0.0 - - - - - - -
28/01:00pm 19.4 SE 8 10 1028.1 - 0.0 - - - - - - -
28/12:30pm 19.4 SE 8 11 1028.6 - 0.0 - - - - - - -
28/12:00pm 19.3 ESE 9 10 1029.1 - 0.0 - - - - - - -
28/11:30am 19.6 ESE 7 9 1029.7 - 0.0 - - - - - - -
28/11:00am 19.8 ESE 6 8 1030.3 - 0.0 - - - - - - -
28/10:30am 19.9 ESE 5 6 1030.7 - 0.0 - - - - - - -
28/10:00am 19.7 E 5 6 1031.0 - 0.0 - - - - - - -
28/09:30am 19.6 E 6 7 1031.1 - 0.0 - - - - - - -
28/09:00am 19.5 NE 5 8 1031.2 - 0.0 - - - - - - -
28/08:30am 17.8 N 5 8 1031.2 - 0.0 - - - - - - -
28/08:00am 16.7 N 6 8 1031.1 - 0.0 - - - - - - -
28/07:30am 14.6 N 5 6 1030.9 - 0.0 - - - - - - -
28/07:00am 14.0 N 7 8 1030.8 - 0.0 - - - - - - -
28/06:30am 13.5 N 4 6 1030.6 - 0.0 - - - - - - -
28/06:00am 13.6 N 5 7 1030.5 - 0.0 - - - - - - -
28/05:30am 13.7 N 5 7 1030.4 - 0.0 - - - - - - -
28/05:00am 14.1 NNE 7 11 1030.4 - 0.0 - - - - - - -
28/04:30am 14.2 NNE 6 8 1030.2 - 0.0 - - - - - - -
28/04:00am 15.3 NNE 9 13 1030.1 - 0.0 - - - - - - -
28/03:30am 14.1 NNE 5 7 1030.2 - 0.0 - - - - - - -
28/03:00am 16.3 E 10 11 1030.2 - 0.0 - - - - - - -
28/02:30am 13.7 NNE 4 6 1030.2 - 0.0 - - - - - - -
28/02:00am 13.5 N 4 6 1030.4 - 0.0 - - - - - - -
28/01:30am 13.8 N 5 6 1030.3 - 0.0 - - - - - - -
28/01:00am 15.6 NNE 7 15 1030.4 - 0.0 - - - - - - -
28/12:30am 16.9 ENE 14 16 1030.3 - 0.0 - - - - - - -
28/12:00am 16.9 E 12 14 1030.3 - 0.0 - - - - - - -
 
Date/Time
WST
Temp

°C
Wind Pressure Rain
since 9am
mm
Weather Cloud Vis
km
Sea
Height
m
Swell
Dir
 
Speed
knots
Gust
knots
hPa Trend Height
m
Period
s
Dir
27/11:30pm 17.0 E 13 15 1030.3 - 0.0 - - - - - - -
27/11:00pm 17.1 E 12 15 1030.3 - 0.0 - - - - - - -
27/10:30pm 17.0 E 14 16 1030.4 - 0.0 - - - - - - -
27/10:00pm 17.1 E 13 15 1030.7 - 0.0 - - - - - - -
27/09:30pm 17.0 E 14 17 1030.7 - 0.0 - - - - - - -
27/09:00pm 17.0 E 14 17 1030.9 - 0.0 - - - - - - -
27/08:30pm 17.0 ESE 13 15 1030.9 - 0.0 - - - - - - -
27/08:00pm 16.8 ESE 13 16 1030.8 - 0.0 - - - - - - -
27/07:30pm 16.8 ESE 14 16 1030.7 - 0.0 - - - - - - -
27/07:00pm 16.8 ESE 14 17 1030.5 - 0.0 - - - - - - -
27/06:30pm 16.7 ESE 15 17 1030.4 - 0.0 - - - - - - -
27/06:00pm 16.7 ESE 15 18 1030.2 - 0.0 - - - - - - -
27/05:30pm 16.9 ESE 16 19 1030.0 - 0.0 - - - - - - -
27/05:00pm 16.8 ESE 15 17 1029.9 - 0.0 - - - - - - -
27/04:30pm 17.0 ESE 15 18 1029.9 - 0.0 - - - - - - -
27/04:00pm 17.3 ESE 16 18 1029.9 - 0.0 - - - - - - -
27/03:30pm 17.7 ESE 15 21 1029.7 - 0.0 - - - - - - -
27/03:00pm 18.4 ESE 12 14 1029.7 - 0.0 - - - - - - -
27/02:30pm 18.8 SE 10 12 1029.5 - 0.0 - - - - - - -
27/02:00pm 18.8 ESE 11 12 1029.4 - 0.0 - - - - - - -
27/01:30pm 18.8 SE 11 12 1029.4 - 0.0 - - - - - - -
27/01:00pm 18.0 SE 11 13 1029.5 - 0.0 - - - - - - -
27/12:30pm 18.9 SE 11 14 1029.7 - 0.0 - - - - - - -
27/12:00pm 18.4 SE 11 12 1029.9 - 0.0 - - - - - - -
27/11:30am 19.4 ESE 11 14 1030.3 - 0.0 - - - - - - -
27/11:00am 19.0 ESE 8 11 1030.5 - 0.0 - - - - - - -
27/10:30am 18.5 ESE 6 9 1030.9 - 0.0 - - - - - - -
27/10:00am 18.5 ESE 6 7 1031.2 - 0.0 - - - - - - -
27/09:30am 17.2 CALM 0 0 1031.4 - 0.0 - - - - - - -
27/09:00am 16.3 NNE 1 4 1031.5 - 2.2 - - - - - - -
27/08:30am 15.3 NNW 5 7 1031.3 - 2.2 - - - - - - -
27/08:00am 14.8 NNW 5 7 1031.1 - 2.2 - - - - - - -
27/07:30am 14.3 NNW 6 8 1030.8 - 2.2 - - - - - - -
27/07:00am 14.0 N 7 9 1030.5 - 2.0 - - - - - - -
27/06:30am 14.2 N 5 6 1030.1 - 1.8 - - - - - - -
27/06:00am 14.7 NE 7 17 1029.9 - 1.6 - - - - - - -
27/05:30am 15.0 E 6 8 1029.6 - 1.6 - - - - - - -
27/05:00am 14.4 N 3 6 1029.5 - 1.0 - - - - - - -
27/04:30am 15.3 NE 8 11 1029.3 - 0.4 - - - - - - -
27/04:00am 15.7 S 13 16 1029.1 - 0.4 - - - - - - -
27/03:30am 15.2 SE 10 11 1029.0 - 0.4 - - - - - - -
27/03:00am 15.6 ESE 16 19 1029.0 - 0.4 - - - - - - -
27/02:30am 15.5 ESE 16 19 1029.0 - 0.4 - - - - - - -
27/02:00am 13.8 N 4 10 1029.2 - 0.4 - - - - - - -
27/01:30am 13.9 NW 3 6 1029.2 - 0.2 - - - - - - -
27/01:00am 13.9 NW 6 7 1029.3 - 0.0 - - - - - - -
27/12:30am 14.0 NW 6 8 1029.3 - 0.0 - - - - - - -
27/12:00am 15.2 N 7 10 1029.2 - 0.0 - - - - - - -
 
Date/Time
WST
Temp

°C
Wind Pressure Rain
since 9am
mm
Weather Cloud Vis
km
Sea
Height
m
Swell
Dir
 
Speed
knots
Gust
knots
hPa Trend Height
m
Period
s
Dir
26/11:30pm 17.2 SE 12 16 1029.2 - 0.0 - - - - - - -
26/11:00pm 17.3 ESE 12 14 1029.1 - 0.0 - - - - - - -
26/10:00pm 17.1 SE 13 15 1029.4 - 0.0 - - - - - - -
26/09:30pm 17.2 SE 14 16 1029.6 - 0.0 - - - - - - -
26/09:00pm 17.2 SE 14 18 1029.6 - 0.0 - - - - - - -
26/08:00pm 17.3 SE 15 18 1029.4 - 0.0 - - - - - - -
26/07:30pm 17.2 ESE 14 17 1029.3 - 0.0 - - - - - - -
26/07:00pm 17.1 ESE 14 17 1029.1 - 0.0 - - - - - - -
26/06:30pm 15.2 NNE 5 6 1029.1 - 0.0 - - - - - - -
26/06:00pm 16.0 ENE 11 13 1028.9 - 0.0 - - - - - - -
26/05:30pm 16.5 E 14 17 1028.6 - 0.0 - - - - - - -
26/05:00pm 17.2 SE 15 17 1028.4 - 0.0 - - - - - - -
26/04:59pm 17.1 ESE 15 17 1028.4 - 0.0 - - - - - - -
26/04:30pm 15.6 E 3 6 1028.4 - 0.0 - - - - - - -
26/04:00pm 16.7 SSE 7 9 1028.3 - 0.0 - - - - - - -
26/03:30pm 16.8 S 4 5 1028.2 - 0.0 - - - - - - -
26/03:00pm 15.8 CALM 0 0 1028.0 - 0.0 - - - - - - -
26/02:30pm 15.1 E 7 9 1028.2 - 0.0 - - - - - - -
26/02:00pm 16.1 ESE 15 17 1028.2 - 0.0 - - - - - - -
26/01:30pm 16.8 SE 14 17 1028.0 - 0.0 - - - - - - -
26/01:00pm 17.9 SE 10 12 1027.9 - 0.0 - - - - - - -
26/12:30pm 16.8 ENE 11 14 1028.0 - 0.0 - - - - - - -
26/12:00pm 17.3 ESE 10 12 1028.3 - 0.0 - - - - - - -
26/11:30am 16.7 E 8 13 1028.7 - 0.0 - - - - - - -
26/11:00am 16.7 ESE 16 19 1029.0 - 0.0 - - - - - - -
26/09:00am 15.9 ESE 14 17 1029.3 - 0.4 - - - - - - -
26/08:30am 17.2 SE 11 13 1029.2 - 0.4 - - - - - - -
26/08:00am 16.9 SE 11 14 1029.1 - 0.4 - - - - - - -
26/07:30am 17.1 SE 11 13 1028.8 - 0.4 - - - - - - -
26/07:00am 16.8 SE 10 14 1028.4 - 0.4 - - - - - - -
26/06:30am 16.5 SE 11 13 1028.1 - 0.4 - - - - - - -
26/06:00am 16.3 SE 11 14 1027.9 - 0.4 - - - - - - -
26/05:30am 16.2 SSE 13 16 1027.5 - 0.4 - - - - - - -
26/05:00am 16.1 SE 9 12 1027.1 - 0.4 - - - - - - -
26/04:30am 16.1 SSE 10 13 1027.2 - 0.4 - - - - - - -
26/04:00am 16.4 SSE 11 14 1027.1 - 0.4 - - - - - - -
26/03:30am 16.3 SSE 13 16 1026.8 - 0.4 - - - - - - -
26/03:00am 16.2 SSE 9 12 1026.8 - 0.4 - - - - - - -
26/02:30am 16.2 SSE 10 13 1026.8 - 0.4 - - - - - - -
26/02:00am 16.1 SSE 10 12 1026.9 - 0.4 - - - - - - -
26/01:30am 16.1 SE 12 14 1026.9 - 0.4 - - - - - - -
26/01:00am 16.2 SSE 12 15 1026.9 - 0.4 - - - - - - -
26/12:30am 16.4 SE 11 13 1026.9 - 0.4 - - - - - - -
26/12:00am 16.2 SE 11 14 1026.8 - 0.4 - - - - - - -
 
Date/Time
WST
Temp

°C
Wind Pressure Rain
since 9am
mm
Weather Cloud Vis
km
Sea
Height
m
Swell
Dir
 
Speed
knots
Gust
knots
hPa Trend Height
m
Period
s
Dir
25/11:30pm 15.0 WSW 5 7 1026.8 - 0.4 - - - - - - -
25/11:00pm 15.7 S 11 15 1027.1 - 0.4 - - - - - - -
25/10:30pm 16.5 S 11 14 1027.2 - 0.4 - - - - - - -
25/10:00pm 16.6 SSE 10 13 1027.4 - 0.4 - - - - - - -
25/09:30pm 16.7 SSE 13 16 1027.2 - 0.4 - - - - - - -
25/09:00pm 16.7 SSE 11 13 1027.4 - 0.4 - - - - - - -
25/08:30pm 16.6 SE 12 15 1027.3 - 0.4 - - - - - - -
25/08:00pm 16.4 SSE 12 15 1027.1 - 0.4 - - - - - - -
25/07:30pm 16.4 SE 13 15 1026.9 - 0.4 - - - - - - -
25/07:00pm 16.2 SE 12 14 1026.8 - 0.4 - - - - - - -
25/06:30pm 14.0 WSW 1 5 1026.7 - 0.4 - - - - - - -
25/06:00pm 14.0 WSW 6 7 1026.7 - 0.4 - - - - - - -
25/05:30pm 14.5 SSW 5 8 1026.4 - 0.4 - - - - - - -
25/05:00pm 14.6 CALM 0 0 1026.2 - 0.4 - - - - - - -
25/04:30pm 14.6 SW 7 10 1026.0 - 0.4 - - - - - - -
25/04:00pm 16.1 SSE 12 20 1025.9 - 0.2 - - - - - - -
25/03:30pm 17.4 S 13 16 1025.6 - 0.0 - - - - - - -
25/03:00pm 18.0 SSE 9 11 1025.5 - 0.0 - - - - - - -

Other Formats:

Comma delimited format used in spreadsheet applications
http://www.bom.gov.au/fwo/IDW60701/IDW60701.94644.axf

JavaScript Object Notation format (JSON) in row-major order
http://www.bom.gov.au/fwo/IDW60701/IDW60701.94644.json